createdAt,value
2019-05-30T00:00:11.405Z,12.12
2019-05-30T00:05:00.879Z,12.06
2019-05-30T00:15:12.525Z,11.97
2019-05-30T00:20:14.180Z,11.90
2019-05-30T00:25:15.838Z,11.86
2019-05-30T00:30:24.519Z,11.82
2019-05-30T00:35:20.974Z,11.79
2019-05-30T00:40:22.676Z,11.77
2019-05-30T00:45:24.258Z,11.75
2019-05-30T00:50:25.903Z,11.55
2019-05-30T00:55:27.520Z,11.39
2019-05-30T01:00:42.972Z,11.46
2019-05-30T01:05:32.522Z,11.35
2019-05-30T01:10:34.211Z,11.37
2019-05-30T01:15:35.761Z,11.37
2019-05-30T01:20:37.307Z,11.26
2019-05-30T01:25:39.014Z,11.14
2019-05-30T01:30:40.805Z,11.02
2019-05-30T01:35:42.491Z,10.99
2019-05-30T01:40:44.063Z,10.96
2019-05-30T01:45:45.715Z,10.80
2019-05-30T01:50:47.309Z,10.88
2019-05-30T01:55:49.010Z,10.89
2019-05-30T02:00:50.553Z,10.90
2019-05-30T02:05:52.135Z,10.88
2019-05-30T02:10:53.684Z,10.85
2019-05-30T02:15:55.203Z,10.83
2019-05-30T02:20:56.881Z,10.79
2019-05-30T02:25:58.411Z,10.75
2019-05-30T02:31:00.523Z,10.74
2019-05-30T02:36:04.101Z,10.74
2019-05-30T02:41:07.742Z,10.74
2019-05-30T02:46:10.583Z,10.67
2019-05-30T02:51:12.986Z,10.56
2019-05-30T02:56:14.547Z,10.52
2019-05-30T03:01:16.220Z,10.58
2019-05-30T03:06:17.779Z,10.59
2019-05-30T03:11:19.423Z,10.54
2019-05-30T03:16:21.103Z,10.51
2019-05-30T03:21:22.764Z,10.42
2019-05-30T03:26:24.437Z,10.42
2019-05-30T03:31:29.328Z,10.47
2019-05-30T03:36:31.710Z,10.46
2019-05-30T03:41:33.563Z,10.51
2019-05-30T03:46:37.991Z,10.48
2019-05-30T03:51:41.023Z,10.58
2019-05-30T03:56:46.854Z,10.64
2019-05-30T04:02:06.435Z,10.67
2019-05-30T04:07:15.814Z,10.68
2019-05-30T04:12:26.158Z,10.71
2019-05-30T04:17:27.699Z,10.76
2019-05-30T04:22:29.270Z,10.78
2019-05-30T04:27:30.833Z,10.86
2019-05-30T04:32:32.493Z,11.00
2019-05-30T04:37:34.032Z,11.06
2019-05-30T04:42:35.651Z,11.09
2019-05-30T04:47:37.193Z,11.16
2019-05-30T04:52:38.757Z,11.17
2019-05-30T04:57:40.292Z,11.28
2019-05-30T05:02:41.849Z,11.34
2019-05-30T05:07:43.371Z,11.39
2019-05-30T05:12:44.908Z,11.45
2019-05-30T05:17:46.447Z,11.51
2019-05-30T05:22:47.983Z,11.60
2019-05-30T05:27:49.522Z,11.73
2019-05-30T05:32:51.169Z,11.87
2019-05-30T05:37:52.726Z,11.97
2019-05-30T05:42:54.278Z,12.07
2019-05-30T05:47:55.831Z,12.14
2019-05-30T05:52:57.409Z,12.24
2019-05-30T05:57:58.949Z,12.30
2019-05-30T06:03:00.499Z,12.41
2019-05-30T06:08:02.152Z,12.55
2019-05-30T06:13:03.794Z,12.66
2019-05-30T06:18:05.429Z,12.78
2019-05-30T06:23:06.970Z,12.87
2019-05-30T06:28:08.618Z,12.93
2019-05-30T06:33:10.168Z,13.07
2019-05-30T06:38:11.727Z,13.18
2019-05-30T06:43:13.289Z,13.30
2019-05-30T06:48:14.821Z,13.37
2019-05-30T06:53:16.389Z,13.47
2019-05-30T06:58:18.217Z,13.58
2019-05-30T07:03:19.881Z,13.68
2019-05-30T07:08:22.654Z,13.75
2019-05-30T07:13:25.253Z,13.86
2019-05-30T07:18:27.547Z,14.00
2019-05-30T07:23:30.441Z,14.13
2019-05-30T07:28:32.105Z,14.26
2019-05-30T07:33:34.559Z,14.40
2019-05-30T07:38:37.089Z,14.51
2019-05-30T07:43:38.728Z,14.59
2019-05-30T07:48:40.286Z,14.68
2019-05-30T07:53:41.839Z,14.77
2019-05-30T07:58:43.594Z,14.82
2019-05-30T08:03:45.158Z,14.87
2019-05-30T08:08:46.746Z,14.99
2019-05-30T08:13:48.422Z,15.10
2019-05-30T08:18:49.985Z,15.17
2019-05-30T08:23:51.544Z,15.32
2019-05-30T08:28:53.415Z,15.39
2019-05-30T08:33:54.955Z,15.52
2019-05-30T08:38:56.639Z,15.68
2019-05-30T08:43:58.242Z,15.87
2019-05-30T08:49:01.836Z,15.92
2019-05-30T08:54:03.490Z,15.93
2019-05-30T08:59:06.542Z,16.00
2019-05-30T09:04:08.213Z,16.07
2019-05-30T09:09:09.942Z,16.19
2019-05-30T09:14:11.626Z,16.29
2019-05-30T09:19:13.222Z,16.44
2019-05-30T09:24:14.880Z,16.54
2019-05-30T09:29:16.527Z,16.57
2019-05-30T09:34:18.180Z,16.59
2019-05-30T09:39:19.731Z,16.69
2019-05-30T09:44:21.276Z,16.85
2019-05-30T09:49:22.947Z,16.97
2019-05-30T09:54:24.487Z,17.05
2019-05-30T09:59:26.105Z,17.21
2019-05-30T10:04:27.678Z,17.33
2019-05-30T10:09:29.335Z,17.36
2019-05-30T10:14:30.925Z,17.49
2019-05-30T10:19:32.597Z,17.55
2019-05-30T10:24:34.166Z,17.71
2019-05-30T10:29:35.817Z,17.78
2019-05-30T10:34:37.367Z,17.88
2019-05-30T10:39:38.928Z,18.04
2019-05-30T10:44:40.483Z,18.19
2019-05-30T10:49:42.032Z,18.35
2019-05-30T10:54:43.594Z,18.44
2019-05-30T10:59:45.946Z,18.46
2019-05-30T11:04:48.975Z,18.57
2019-05-30T11:09:57.714Z,18.79
2019-05-30T11:14:59.274Z,18.95
2019-05-30T11:20:00.871Z,19.24
2019-05-30T11:25:02.829Z,19.31
2019-05-30T11:30:04.571Z,19.33
2019-05-30T11:35:06.223Z,19.23
2019-05-30T11:40:08.194Z,19.66
2019-05-30T11:45:10.137Z,19.82
2019-05-30T11:50:13.010Z,20.30
2019-05-30T11:55:14.986Z,20.35
2019-05-30T12:00:18.530Z,20.35
2019-05-30T12:05:20.404Z,20.95
2019-05-30T12:10:22.752Z,23.13
2019-05-30T12:15:24.610Z,30.67
2019-05-30T12:20:26.764Z,34.12
2019-05-30T12:25:28.309Z,32.84
2019-05-30T12:30:29.999Z,38.03
2019-05-30T12:35:31.637Z,41.28
2019-05-30T12:40:33.190Z,43.44
2019-05-30T12:45:34.731Z,40.27
2019-05-30T12:50:36.399Z,43.71
2019-05-30T12:55:37.958Z,38.37
2019-05-30T13:00:42.332Z,32.08
2019-05-30T13:05:43.893Z,31.01
2019-05-30T13:10:45.463Z,40.78
2019-05-30T13:15:47.032Z,37.57
2019-05-30T13:20:48.623Z,32.86
2019-05-30T13:25:50.153Z,33.49
2019-05-30T13:30:51.842Z,31.92
2019-05-30T13:35:53.421Z,32.18
2019-05-30T13:40:54.990Z,31.28
2019-05-30T13:45:56.561Z,28.58
2019-05-30T13:50:58.636Z,30.83
2019-05-30T13:56:01.432Z,30.35
2019-05-30T14:01:07.797Z,30.01
2019-05-30T14:06:06.774Z,29.78
2019-05-30T14:11:08.731Z,28.35
2019-05-30T14:16:11.094Z,27.64
2019-05-30T14:21:12.779Z,27.92
2019-05-30T14:26:14.339Z,27.59
2019-05-30T14:31:15.924Z,27.36
2019-05-30T14:36:17.494Z,27.21
2019-05-30T14:41:19.052Z,25.74
2019-05-30T14:46:20.613Z,25.28
2019-05-30T14:51:22.189Z,25.52
2019-05-30T14:56:23.750Z,26.47
2019-05-30T15:01:25.433Z,34.25
2019-05-30T15:06:27.025Z,29.56
2019-05-30T15:11:28.606Z,31.88
2019-05-30T15:16:30.197Z,30.83
2019-05-30T15:21:31.841Z,32.05
2019-05-30T15:26:33.613Z,32.81
2019-05-30T15:31:35.192Z,27.89
2019-05-30T15:36:36.782Z,29.71
2019-05-30T15:41:38.466Z,32.74
2019-05-30T15:46:40.208Z,30.58
2019-05-30T15:51:41.775Z,28.53
2019-05-30T15:56:43.547Z,26.79
2019-05-30T16:01:45.110Z,27.27
2019-05-30T16:06:46.697Z,25.89
2019-05-30T16:11:48.391Z,25.33
2019-05-30T16:16:49.953Z,24.79
2019-05-30T16:21:51.519Z,24.39
2019-05-30T16:26:53.219Z,24.01
2019-05-30T16:31:54.837Z,24.17
2019-05-30T16:36:56.431Z,23.80
2019-05-30T16:41:58.068Z,23.51
2019-05-30T16:46:59.771Z,23.10
2019-05-30T16:52:01.343Z,22.85
2019-05-30T16:57:02.918Z,22.51
2019-05-30T17:02:04.618Z,22.14
2019-05-30T17:07:08.605Z,21.95
2019-05-30T17:12:10.436Z,21.81
2019-05-30T17:17:12.053Z,21.66
2019-05-30T17:22:13.620Z,21.50
2019-05-30T17:27:15.170Z,21.36
2019-05-30T17:32:17.780Z,21.23
2019-05-30T17:37:20.263Z,21.11
2019-05-30T17:42:22.772Z,21.03
2019-05-30T17:47:25.479Z,21.01
2019-05-30T18:19:46.788Z,20.66
2019-05-30T18:24:48.365Z,20.59
2019-05-30T18:29:49.922Z,20.55
2019-05-30T18:34:51.506Z,20.43
2019-05-30T18:39:53.190Z,20.32
2019-05-30T18:44:54.852Z,20.26
2019-05-30T18:49:56.528Z,20.20
2019-05-30T18:54:58.247Z,20.11
2019-05-30T18:59:59.848Z,20.08
2019-05-30T19:10:19.219Z,20.06
2019-05-30T19:15:20.904Z,19.99
2019-05-30T19:20:23.003Z,19.96
2019-05-30T19:25:24.598Z,19.91
2019-05-30T19:30:26.471Z,19.85
2019-05-30T19:35:28.963Z,19.77
2019-05-30T19:40:31.621Z,19.63
2019-05-30T19:45:34.088Z,19.53
2019-05-30T19:50:36.851Z,19.50
2019-05-30T19:55:39.426Z,19.48
2019-05-30T20:00:57.255Z,19.38
2019-05-30T20:05:44.685Z,19.35
2019-05-30T20:10:46.392Z,19.30
2019-05-30T20:15:48.884Z,19.09
2019-05-30T20:20:57.599Z,18.97
2019-05-30T20:25:54.077Z,18.95
2019-05-30T20:30:55.636Z,18.98
2019-05-30T20:35:57.260Z,18.78
2019-05-30T20:40:59.028Z,18.66
2019-05-30T20:46:00.604Z,18.54
2019-05-30T20:51:02.184Z,18.40
2019-05-30T20:56:03.869Z,18.32
2019-05-30T21:01:05.530Z,18.31
2019-05-30T21:06:07.190Z,18.41
2019-05-30T21:11:09.805Z,18.49
2019-05-30T21:16:12.527Z,18.50
2019-05-30T21:21:14.077Z,18.44
2019-05-30T21:26:15.725Z,18.39
2019-05-30T21:31:17.293Z,18.35
2019-05-30T21:36:19.017Z,18.31
2019-05-30T21:41:20.546Z,18.22
2019-05-30T21:46:22.129Z,18.15
2019-05-30T21:51:23.691Z,18.05
2019-05-30T21:56:25.335Z,17.87
2019-05-30T22:01:30.370Z,17.74
2019-05-30T22:06:32.141Z,17.69
2019-05-30T22:11:33.833Z,17.85
2019-05-30T22:16:35.517Z,17.86
2019-05-30T22:21:37.200Z,17.84
2019-05-30T22:26:38.776Z,17.80
2019-05-30T22:31:40.456Z,17.89
2019-05-30T22:36:42.725Z,18.00
2019-05-30T22:41:44.502Z,18.04
2019-05-30T22:46:46.208Z,18.06
2019-05-30T22:51:48.968Z,18.05
2019-05-30T22:56:51.533Z,18.06
2019-05-30T23:01:53.675Z,18.09
2019-05-30T23:06:56.468Z,18.10
2019-05-30T23:11:58.217Z,18.13
2019-05-30T23:16:59.774Z,18.15
2019-05-30T23:22:01.443Z,18.17
2019-05-30T23:27:03.317Z,18.17
2019-05-30T23:32:04.876Z,18.17
2019-05-30T23:37:06.427Z,18.16
2019-05-30T23:42:08.007Z,18.15
2019-05-30T23:47:09.737Z,18.13
2019-05-30T23:52:11.381Z,18.15
2019-05-30T23:57:12.978Z,18.17
